Date,TemperatureHighF,TemperatureAvgF,TemperatureLowF,DewpointHighF,DewpointAvgF,DewpointLowF,HumidityHigh,HumidityAvg,HumidityLow,PressureMaxIn,PressureMinIn,WindSpeedMaxMPH,WindSpeedAvgMPH,GustSpeedMaxMPH,PrecipitationSumIn
2013-3-1,37,35,34,35,32,31,93,89,82,30.07,29.99,3,1,4,0.01
2013-3-2,34,32,30,31,26,22,91,79,64,30.15,30.06,6,2,8,0.00
2013-3-3,40,32,25,26,22,17,91,70,40,30.17,30.08,4,1,6,0.00
2013-3-4,42,34,22,28,23,20,92,67,45,30.15,29.94,5,2,8,0.00
2013-3-5,42,38,30,40,32,27,95,82,55,29.93,29.66,5,2,8,0.34
2013-3-6,34,32,31,31,30,29,94,89,86,30.32,29.81,5,2,8,0.02
2013-3-7,40,35,31,33,30,28,90,80,66,30.41,30.31,2,1,4,0.00
2013-3-8,48,38,28,32,29,26,93,71,48,30.49,30.35,4,1,7,0.00
2013-3-9,59,47,32,36,32,28,84,59,36,30.35,29.98,7,3,9,0.00
2013-3-10,69,61,54,48,38,33,63,42,27,29.98,29.73,11,6,14,0.00
2013-3-11,59,48,37,52,42,31,90,80,66,29.93,29.64,8,4,12,0.00
2013-3-12,48,40,36,33,29,26,80,65,44,30.09,29.93,6,3,10,0.00
2013-3-13,38,32,28,31,23,19,83,68,58,30.39,30.08,6,3,9,0.00
2013-3-14,44,32,22,33,25,19,95,78,39,30.40,30.21,7,1,8,0.03
2013-3-15,59,43,29,43,36,27,94,77,52,30.21,29.70,4,1,5,0.00
2013-3-16,63,53,41,52,44,34,87,71,59,30.02,29.62,6,3,9,0.00
2013-3-17,41,38,36,35,33,30,94,84,76,30.11,29.92,6,3,8,0.38
2013-3-18,47,41,36,45,38,34,97,91,83,29.92,29.65,4,2,9,1.35
2013-3-19,47,38,30,36,24,16,94,60,31,30.17,29.88,7,3,12,0.00
2013-3-20,36,31,27,28,20,11,90,63,45,30.16,30.07,6,2,10,0.00
2013-3-21,38,28,21,21,14,10,79,55,36,30.10,30.01,4,2,8,0.00
2013-3-22,46,34,20,26,19,15,90,59,30,30.11,30.00,4,1,6,0.00
2013-3-23,55,45,38,30,26,21,70,49,31,30.06,29.85,5,2,10,0.00
2013-3-24,44,38,34,34,32,26,95,79,52,29.85,29.41,8,3,10,0.23
2013-3-25,35,33,31,32,31,28,94,91,87,30.05,29.49,5,2,10,0.02
2013-3-26,42,37,32,33,29,24,90,74,50,30.31,30.05,5,2,6,0.00
2013-3-27,46,37,27,31,27,24,93,68,47,30.36,30.30,4,1,6,0.00
2013-3-28,56,40,26,33,28,24,91,65,35,30.40,30.29,3,1,6,0.00
2013-3-29,59,44,31,35,31,28,91,65,33,30.33,30.19,3,1,5,0.00
2013-3-30,60,47,31,42,34,29,91,65,38,30.24,29.94,7,2,9,0.00
2013-3-31,62,52,47,48,46,41,96,80,50,29.93,29.81,4,1,6,0.20